Time;durP1;ratioP1;P1;durP2;ratioP2;P2;SDS_P1;SDS_P2;PMS_P1;PMS_P2;Temp;Humidity;BMP_temperature;BMP_pressure;BME280_temperature;BME280_humidity;BME280_pressure;Samples;Min_cycle;Max_cycle;Signal;HPM_P1;HPM_P2
2023/07/11 00:00:22;;;;;;;2.47;0.90;;;;;;;24.49;43.68;101174.44;5046143;28;20052;-81
2023/07/11 00:02:51;;;;;;;2.05;0.80;;;;;;;24.51;42.83;101169.97;5042992;28;20049;-81
2023/07/11 00:05:20;;;;;;;2.33;0.70;;;;;;;24.51;41.23;101167.34;5040963;28;20042;-79
2023/07/11 00:07:50;;;;;;;1.15;0.75;;;;;;;24.48;41.46;101178.00;5040036;28;20075;-75
2023/07/11 00:10:22;;;;;;;1.50;0.70;;;;;;;24.41;40.58;101175.44;5041643;28;20072;-77
2023/07/11 00:12:51;;;;;;;0.95;0.80;;;;;;;24.28;40.69;101173.97;5046661;28;20053;-79
2023/07/11 00:15:19;;;;;;;1.95;0.90;;;;;;;24.25;40.17;101168.72;5043393;28;20045;-80
2023/07/11 00:17:49;;;;;;;0.80;0.70;;;;;;;24.22;40.85;101176.75;5046206;28;20135;-79
2023/07/11 00:20:19;;;;;;;4.07;1.65;;;;;;;24.18;41.24;101167.13;5054309;28;20079;-78
2023/07/11 00:22:49;;;;;;;5.18;1.00;;;;;;;24.12;42.13;101167.25;5053952;28;20041;-80
2023/07/11 00:25:18;;;;;;;3.80;0.90;;;;;;;24.06;40.47;101168.25;5052367;28;20049;-78
2023/07/11 00:27:47;;;;;;;5.68;0.90;;;;;;;24.10;41.69;101169.03;5052476;28;20049;-84
2023/07/11 00:30:15;;;;;;;3.10;0.90;;;;;;;24.14;41.16;101165.44;5052405;28;20113;-78
2023/07/11 00:32:46;;;;;;;0.98;0.70;;;;;;;24.11;42.39;101166.38;5048581;28;20049;-79
2023/07/11 00:35:15;;;;;;;2.17;1.13;;;;;;;24.01;41.24;101168.34;5052678;28;20094;-80
2023/07/11 00:37:43;;;;;;;4.13;0.90;;;;;;;23.98;42.87;101165.75;5048635;28;20530;-75
2023/07/11 00:40:14;;;;;;;1.75;0.80;;;;;;;23.91;41.38;101158.81;5045097;28;20502;-77
2023/07/11 00:42:43;;;;;;;1.92;1.00;;;;;;;23.96;40.97;101162.28;5048669;28;20053;-80
2023/07/11 00:45:46;;;;;;;3.58;0.73;;;;;;;23.98;41.23;101152.56;5047945;28;20041;-78
2023/07/11 00:48:15;;;;;;;4.32;1.10;;;;;;;24.03;41.68;101158.59;5045390;28;20049;-80
2023/07/11 00:50:44;;;;;;;2.70;0.80;;;;;;;24.03;42.36;101145.38;5048281;28;20699;-81
2023/07/11 00:53:14;;;;;;;2.70;0.90;;;;;;;24.04;44.05;101162.97;5052242;28;20083;-81
2023/07/11 00:55:45;;;;;;;1.60;0.90;;;;;;;23.98;42.92;101159.59;5051600;28;21018;-81
2023/07/11 00:58:17;;;;;;;3.15;0.90;;;;;;;23.94;44.00;101164.06;5046392;28;20041;-77
2023/07/11 01:00:45;;;;;;;;;;;;;;;23.89;45.08;101155.38;5043620;28;20518;-77
2023/07/11 01:03:14;;;;;;;3.53;0.90;;;;;;;23.88;45.46;101158.91;5043563;28;19924;-77
2023/07/11 01:05:43;;;;;;;0.93;0.65;;;;;;;23.86;45.57;101157.19;5045379;28;20240;-77
2023/07/11 01:08:12;;;;;;;1.13;0.90;;;;;;;23.89;45.25;101149.19;5047659;28;20041;-80
2023/07/11 01:10:43;;;;;;;3.53;0.85;;;;;;;23.85;45.25;101163.38;5052157;28;20099;-79
2023/07/11 01:13:12;;;;;;;4.55;0.95;;;;;;;23.76;45.21;101165.28;5061466;28;20064;-78
2023/07/11 01:15:40;;;;;;;5.68;1.33;;;;;;;23.66;45.66;101154.88;5049970;28;20406;-77
2023/07/11 01:18:09;;;;;;;1.98;0.90;;;;;;;23.57;42.18;101159.44;5046127;28;20041;-80
2023/07/11 01:20:38;;;;;;;2.58;0.85;;;;;;;23.55;42.23;101157.75;5049956;28;20053;-81
2023/07/11 01:23:08;;;;;;;1.33;0.90;;;;;;;23.57;43.72;101154.16;5050885;28;20053;-82
2023/07/11 01:25:40;;;;;;;2.17;1.00;;;;;;;23.59;45.64;101151.47;5045738;28;20049;-81
2023/07/11 01:28:12;;;;;;;1.45;0.80;;;;;;;23.60;45.43;101147.94;5052298;28;20048;-80
2023/07/11 01:30:42;;;;;;;1.65;0.93;;;;;;;23.57;43.67;101140.97;5043622;28;20099;-77
2023/07/11 01:33:10;;;;;;;1.08;0.82;;;;;;;23.54;44.27;101146.28;5050343;28;20049;-75
2023/07/11 01:35:38;;;;;;;1.80;0.70;;;;;;;;;;5048583;28;20056;-81
2023/07/11 01:38:09;;;;;;;4.65;0.90;;;;;;;23.53;44.68;101149.84;5068218;27;20064;-82
2023/07/11 01:40:39;;;;;;;5.50;0.90;;;;;;;23.51;43.84;101148.97;5069200;28;20045;-80
2023/07/11 01:43:08;;;;;;;4.07;0.80;;;;;;;23.52;44.52;101140.16;5067024;28;20072;-80
2023/07/11 01:45:37;;;;;;;1.77;0.90;;;;;;;23.51;43.26;101148.97;5073893;28;20052;-81
2023/07/11 01:48:06;;;;;;;1.00;0.75;;;;;;;23.48;42.91;101150.78;5069069;28;20139;-81
2023/07/11 01:50:35;;;;;;;7.03;0.98;;;;;;;23.47;43.00;101147.28;5068047;28;20581;-81
2023/07/11 01:53:06;;;;;;;2.47;0.80;;;;;;;23.46;44.19;101150.84;5066723;28;20045;-81
2023/07/11 01:55:37;;;;;;;2.40;1.10;;;;;;;23.42;43.63;101149.16;5069180;28;20126;-80
2023/07/11 01:58:05;;;;;;;2.63;1.00;;;;;;;23.43;44.98;101158.81;5074679;28;20048;-82
2023/07/11 02:00:34;;;;;;;2.55;1.10;;;;;;;23.42;43.54;101154.44;5072699;28;20055;-77
2023/07/11 02:03:03;;;;;;;1.27;0.70;;;;;;;23.40;42.99;101156.22;5077583;28;20055;-80
2023/07/11 02:05:31;;;;;;;1.92;1.00;;;;;;;23.34;43.28;101151.94;5081325;28;20069;-82
2023/07/11 02:08:00;;;;;;;1.33;0.90;;;;;;;23.33;43.17;101154.59;5085543;28;20028;-78
2023/07/11 02:10:28;;;;;;;1.85;0.80;;;;;;;23.28;44.36;101149.38;5075116;28;20040;-78
2023/07/11 02:12:59;;;;;;;2.55;0.90;;;;;;;23.28;44.17;101161.72;5088957;28;20040;-79
2023/07/11 02:15:27;;;;;;;1.88;0.90;;;;;;;23.26;43.90;101155.59;5083358;28;20052;-81
2023/07/11 02:17:59;;;;;;;1.95;0.80;;;;;;;23.24;44.42;101158.25;5065987;28;20560;-77
2023/07/11 02:20:28;;;;;;;5.00;0.85;;;;;;;23.24;44.95;101154.75;5069811;28;20059;-78
2023/07/11 02:22:59;;;;;;;3.80;0.95;;;;;;;23.20;44.33;101154.81;5071478;28;20079;-79
2023/07/11 02:25:28;;;;;;;2.65;1.00;;;;;;;23.18;44.01;101161.88;5064617;28;20206;-81
2023/07/11 02:27:58;;;;;;;2.45;0.65;;;;;;;23.14;44.77;101165.47;5067733;28;20581;-83
2023/07/11 02:30:27;;;;;;;2.05;1.00;;;;;;;23.13;44.28;101168.09;5074493;28;20073;-80
2023/07/11 02:32:55;;;;;;;1.88;1.08;;;;;;;23.12;44.64;101167.25;5066747;28;20040;-80
2023/07/11 02:35:24;;;;;;;2.83;1.10;;;;;;;23.08;44.37;101165.53;5069801;28;20052;-80
2023/07/11 02:37:53;;;;;;;2.25;0.77;;;;;;;23.06;44.47;101163.81;5054278;27;20120;-79
2023/07/11 02:40:22;;;;;;;2.10;1.10;;;;;;;23.05;44.55;101165.59;5045731;28;20056;-81
2023/07/11 02:42:50;;;;;;;1.67;0.93;;;;;;;23.02;44.04;101165.66;5044753;28;20466;-78
2023/07/11 02:45:21;;;;;;;4.07;2.17;;;;;;;23.01;44.77;101161.25;5043036;28;20508;-81
2023/07/11 02:47:50;;;;;;;2.20;0.90;;;;;;;22.99;44.80;101165.69;5045069;28;21246;-78
2023/07/11 02:50:20;;;;;;;1.65;0.77;;;;;;;22.97;44.57;101170.94;5048691;28;20083;-81
2023/07/11 02:52:49;;;;;;;2.78;1.10;;;;;;;22.95;44.49;101162.22;5046297;28;20045;-79
2023/07/11 02:55:18;;;;;;;1.52;0.85;;;;;;;22.93;44.84;101160.47;5058641;28;20088;-84
2023/07/11 02:57:46;;;;;;;1.10;0.90;;;;;;;22.89;44.93;101159.66;5059635;28;20039;-80
2023/07/11 03:00:16;;;;;;;4.63;1.08;;;;;;;22.87;44.57;101165.84;5049543;28;20049;-83
2023/07/11 03:02:47;;;;;;;2.33;1.00;;;;;;;22.83;45.03;101161.50;5046130;28;20045;-79
2023/07/11 03:05:16;;;;;;;2.37;0.80;;;;;;;22.79;44.83;101161.56;5044414;28;20057;-80
2023/07/11 03:07:45;;;;;;;2.72;1.00;;;;;;;22.77;45.31;101163.34;5044802;28;20048;-82
2023/07/11 03:10:14;;;;;;;2.90;0.90;;;;;;;22.73;45.63;101159.00;5040707;28;20498;-86
2023/07/11 03:12:45;;;;;;;1.15;0.93;;;;;;;22.69;45.96;101154.66;5050442;28;20041;-84
2023/07/11 03:15:13;;;;;;;2.83;1.00;;;;;;;22.66;45.64;101157.34;5047622;28;20049;-81
2023/07/11 03:17:42;;;;;;;1.92;1.38;;;;;;;22.64;46.03;101160.91;5054162;28;20821;-82
2023/07/11 03:20:13;;;;;;;1.73;0.93;;;;;;;22.60;46.26;101167.97;5051808;28;20044;-81
2023/07/11 03:22:41;;;;;;;2.95;1.00;;;;;;;22.57;46.49;101162.75;5047132;28;20126;-82
2023/07/11 03:25:13;;;;;;;2.90;0.95;;;;;;;22.53;46.24;101163.69;5050697;28;20049;-83
2023/07/11 03:27:42;;;;;;;4.90;0.95;;;;;;;22.49;46.51;101162.84;5047117;28;20050;-83
2023/07/11 03:30:11;;;;;;;1.30;0.80;;;;;;;22.48;46.52;101160.25;5046847;28;20029;-83
2023/07/11 03:32:40;;;;;;;1.85;0.77;;;;;;;22.46;46.50;101162.03;5047186;28;20049;-83
2023/07/11 03:35:09;;;;;;;3.28;0.90;;;;;;;22.43;46.94;101168.22;5042855;28;20579;-84
2023/07/11 03:37:39;;;;;;;5.00;1.17;;;;;;;22.38;48.20;101163.00;5048828;27;20119;-84
2023/07/11 03:40:09;;;;;;;1.17;1.00;;;;;;;22.31;48.36;101166.59;5050217;28;20056;-83
2023/07/11 03:42:37;;;;;;;5.60;0.90;;;;;;;22.24;48.65;101153.50;5046258;28;20060;-82
2023/07/11 03:45:07;;;;;;;3.92;1.15;;;;;;;22.27;48.61;101162.25;5047044;28;20073;-85
2023/07/11 03:47:38;;;;;;;1.50;1.00;;;;;;;22.22;48.50;101165.81;5055420;28;20045;-84
2023/07/11 03:50:07;;;;;;;2.70;1.00;;;;;;;22.15;48.69;101165.00;5052122;28;20080;-82
2023/07/11 03:52:36;;;;;;;4.47;1.40;;;;;;;22.06;48.43;101165.09;5048903;28;20071;-79
2023/07/11 03:55:07;;;;;;;2.33;1.10;;;;;;;22.01;48.41;101166.91;5041905;28;20083;-79
2023/07/11 03:57:36;;;;;;;1.50;1.08;;;;;;;21.95;48.72;101175.78;5047920;28;20487;-81
2023/07/11 04:00:05;;;;;;;2.45;0.98;;;;;;;21.89;48.90;101166.16;5045009;28;20065;-81
2023/07/11 04:02:34;;;;;;;1.48;0.90;;;;;;;21.86;49.20;101173.25;5041595;28;20051;-80
2023/07/11 04:05:02;;;;;;;1.00;0.75;;;;;;;21.83;49.54;101171.53;5049006;28;20063;-78
2023/07/11 04:07:31;;;;;;;2.58;1.10;;;;;;;21.84;48.78;101170.63;5042408;28;20060;-80
2023/07/11 04:10:01;;;;;;;2.53;1.00;;;;;;;21.84;49.17;101167.13;5043930;28;20053;-83
2023/07/11 04:12:31;;;;;;;3.88;1.05;;;;;;;21.82;49.28;101177.66;5045219;28;20042;-83
2023/07/11 04:15:00;;;;;;;1.95;0.90;;;;;;;21.82;49.25;101169.75;5049683;28;20101;-84
2023/07/11 04:17:29;;;;;;;1.30;1.08;;;;;;;21.81;49.24;101175.94;5044109;28;20048;-83
2023/07/11 04:19:58;;;;;;;1.58;1.10;;;;;;;21.81;49.12;101181.19;5041627;28;20061;-82
2023/07/11 04:22:28;;;;;;;1.75;1.15;;;;;;;21.78;49.43;101189.09;5049492;28;20072;-84
2023/07/11 04:24:57;;;;;;;1.23;1.00;;;;;;;21.74;49.74;101190.06;5052838;28;20098;-84
2023/07/11 04:27:26;;;;;;;1.27;0.98;;;;;;;21.70;49.70;101186.56;5050714;28;20032;-82
2023/07/11 04:29:56;;;;;;;3.28;1.02;;;;;;;21.65;49.88;101190.13;5049969;28;20045;-83
2023/07/11 04:32:25;;;;;;;1.90;1.00;;;;;;;21.59;50.45;101192.81;5048262;28;20057;-82
2023/07/11 04:34:53;;;;;;;5.60;1.10;;;;;;;21.52;50.40;101205.16;5050490;28;20487;-82
2023/07/11 04:37:22;;;;;;;1.77;0.90;;;;;;;21.45;50.71;101206.97;5058477;27;20053;-79
2023/07/11 04:39:50;;;;;;;3.78;1.20;;;;;;;21.37;51.10;101214.00;5063054;28;20064;-82
2023/07/11 04:42:19;;;;;;;1.77;0.95;;;;;;;21.30;51.29;101221.09;5048631;28;20054;-83
2023/07/11 04:44:50;;;;;;;1.40;1.00;;;;;;;21.23;51.55;101215.88;5053441;28;20095;-83
2023/07/11 04:47:20;;;;;;;2.30;1.10;;;;;;;21.17;51.39;101218.56;5053456;28;20038;-83
2023/07/11 04:49:49;;;;;;;3.30;1.10;;;;;;;21.13;51.78;101217.72;5048578;28;20052;-82
2023/07/11 04:52:17;;;;;;;1.98;1.00;;;;;;;21.08;52.59;101220.38;5053140;28;20049;-84
2023/07/11 04:54:46;;;;;;;1.75;1.25;;;;;;;21.01;52.30;101223.94;5052830;28;20045;-85
2023/07/11 04:57:15;;;;;;;1.50;0.98;;;;;;;20.97;52.30;101226.59;5070635;28;20040;-84
2023/07/11 04:59:44;;;;;;;3.88;1.17;;;;;;;20.92;52.98;101229.25;5067295;28;20048;-83
2023/07/11 05:02:14;;;;;;;1.75;1.10;;;;;;;20.85;52.82;101233.66;5068731;28;20033;-82
2023/07/11 05:04:45;;;;;;;3.13;1.05;;;;;;;20.79;53.49;101228.44;5064697;28;20033;-83
2023/07/11 05:07:15;;;;;;;1.10;0.80;;;;;;;20.73;53.67;101230.22;5064341;28;20048;-81
2023/07/11 05:09:47;;;;;;;1.10;0.70;;;;;;;20.69;54.17;101230.22;5067510;28;20286;-86
2023/07/11 05:12:17;;;;;;;5.15;0.82;;;;;;;20.65;54.33;101236.38;5057763;28;20115;-84
2023/07/11 05:14:45;;;;;;;1.98;0.80;;;;;;;20.62;54.51;101235.53;5057100;28;20052;-84
2023/07/11 05:17:14;;;;;;;1.33;0.75;;;;;;;20.58;54.88;101234.66;5048262;28;20597;-84
2023/07/11 05:19:47;;;;;;;2.50;0.80;;;;;;;20.53;54.99;101238.19;5053816;28;20418;-85
2023/07/11 05:22:15;;;;;;;4.05;0.85;;;;;;;20.48;55.17;101241.69;5046845;28;20060;-84
2023/07/11 05:24:44;;;;;;;2.40;0.82;;;;;;;20.46;55.55;101239.94;5051338;28;20059;-83
2023/07/11 05:27:12;;;;;;;1.00;0.88;;;;;;;20.43;55.61;101234.69;5048434;28;20041;-85
2023/07/11 05:29:41;;;;;;;5.45;1.17;;;;;;;20.39;55.98;101236.47;5049041;28;20045;-82
2023/07/11 05:32:09;;;;;;;1.92;0.68;;;;;;;20.37;56.16;101232.09;5057383;28;20041;-82
2023/07/11 05:34:38;;;;;;;2.00;0.68;;;;;;;20.33;56.55;101227.72;5055418;28;20115;-82
2023/07/11 05:37:23;;;;;;;0.85;0.73;;;;;;;20.27;56.42;101229.50;5056888;28;20152;-84
2023/07/11 05:39:51;;;;;;;1.85;0.80;;;;;;;20.24;56.65;101232.13;5075960;28;20075;-85
2023/07/11 05:42:20;;;;;;;1.08;0.70;;;;;;;20.21;56.91;101233.91;5070037;28;20124;-84
2023/07/11 05:44:48;;;;;;;2.55;0.82;;;;;;;20.17;57.09;101227.75;5069154;28;20048;-85
2023/07/11 05:47:17;;;;;;;1.00;0.80;;;;;;;20.13;57.18;101227.78;5073663;28;20052;-83
2023/07/11 05:49:46;;;;;;;1.13;1.00;;;;;;;20.06;57.35;101229.53;5070414;28;20037;-81
2023/07/11 05:52:16;;;;;;;1.17;0.95;;;;;;;20.01;57.95;101231.31;5068145;28;20056;-83
2023/07/11 05:54:44;;;;;;;1.80;0.90;;;;;;;19.95;58.36;101231.31;5062656;28;20044;-80
2023/07/11 05:57:13;;;;;;;2.67;1.98;;;;;;;19.90;58.47;101233.94;5070643;28;20045;-82
2023/07/11 05:59:42;;;;;;;1.73;0.75;;;;;;;19.88;58.57;101233.06;5066199;28;20048;-82
2023/07/11 06:02:17;;;;;;;1.27;0.70;;;;;;;19.86;58.35;101232.22;5066314;28;20041;-81
2023/07/11 06:04:46;;;;;;;1.55;0.95;;;;;;;19.84;59.07;101244.47;5063285;28;20059;-80
2023/07/11 06:07:16;;;;;;;1.88;0.70;;;;;;;19.81;58.95;101240.09;5059821;28;20058;-80
2023/07/11 06:09:45;;;;;;;1.00;0.75;;;;;;;19.79;59.47;101241.84;5067425;28;20099;-79
2023/07/11 06:12:14;;;;;;;4.90;0.70;;;;;;;19.76;59.45;101241.81;5067553;28;20052;-82
2023/07/11 06:14:43;;;;;;;4.63;0.88;;;;;;;19.73;59.46;101239.22;5063466;28;20540;-81
2023/07/11 06:17:11;;;;;;;4.13;0.90;;;;;;;19.71;60.02;101235.72;5065839;28;20575;-80
2023/07/11 06:19:40;;;;;;;0.85;0.70;;;;;;;19.69;59.83;101234.84;5064822;28;20049;-80
2023/07/11 06:22:09;;;;;;;0.88;0.60;;;;;;;19.69;60.33;101244.47;5065415;28;20091;-81
2023/07/11 06:24:42;;;;;;;1.67;0.90;;;;;;;19.61;60.47;101226.06;5063347;28;20522;-82
2023/07/11 06:27:11;;;;;;;0.75;0.60;;;;;;;19.66;60.33;101235.69;5060878;28;20056;-82
2023/07/11 06:29:39;;;;;;;2.28;0.90;;;;;;;19.62;60.78;101225.19;5065162;28;20043;-80
2023/07/11 06:32:09;;;;;;;2.78;0.82;;;;;;;19.61;61.75;101231.31;5063741;28;20059;-80
2023/07/11 06:34:40;;;;;;;1.02;0.77;;;;;;;19.57;61.80;101226.94;5062388;28;20510;-79
2023/07/11 06:37:08;;;;;;;1.65;0.55;;;;;;;19.55;62.17;101226.06;5059086;27;20063;-79
2023/07/11 06:39:39;;;;;;;1.33;0.63;;;;;;;19.52;62.63;101226.94;5045954;28;20057;-79
2023/07/11 06:42:08;;;;;;;4.13;0.77;;;;;;;19.50;62.46;101225.19;5042580;28;20075;-79
2023/07/11 06:44:37;;;;;;;1.45;0.73;;;;;;;19.45;63.07;101231.31;5047721;28;20049;-79
2023/07/11 06:47:06;;;;;;;3.05;1.13;;;;;;;19.37;63.67;101227.78;5052080;28;20057;-78
2023/07/11 06:49:35;;;;;;;2.13;0.75;;;;;;;19.32;63.61;101236.53;5048627;28;20078;-77
2023/07/11 06:52:03;;;;;;;1.17;0.70;;;;;;;19.25;64.49;101228.66;5048526;28;20044;-78
2023/07/11 06:54:32;;;;;;;1.38;0.82;;;;;;;19.21;65.43;101232.16;5044450;28;20533;-77
2023/07/11 06:57:02;;;;;;;1.52;0.85;;;;;;;19.16;65.28;101233.03;5038020;28;20068;-79
2023/07/11 06:59:31;;;;;;;1.17;0.60;;;;;;;19.14;65.15;101230.38;5043971;28;20136;-79
2023/07/11 07:01:59;;;;;;;2.03;0.80;;;;;;;19.17;64.96;101234.75;5041269;28;20049;-80
2023/07/11 07:04:28;;;;;;;2.00;0.60;;;;;;;19.12;66.09;101241.75;5044680;28;20099;-78
2023/07/11 07:06:56;;;;;;;0.80;0.63;;;;;;;19.07;66.23;101243.50;5046958;28;20130;-80
2023/07/11 07:09:25;;;;;;;2.13;0.93;;;;;;;19.00;66.63;101234.75;5046024;28;20056;-74
2023/07/11 07:12:03;;;;;;;3.65;0.80;;;;;;;18.95;66.63;101234.72;5043237;28;20506;-78
2023/07/11 07:14:33;;;;;;;2.90;0.68;;;;;;;18.95;67.47;101226.84;5042961;28;20140;-79
2023/07/11 07:17:01;;;;;;;2.67;0.70;;;;;;;18.97;67.56;101229.50;5040949;28;20077;-78
2023/07/11 07:19:32;;;;;;;2.72;0.60;;;;;;;18.96;67.30;101225.97;5045345;28;20132;-79
2023/07/11 07:22:01;;;;;;;2.50;0.73;;;;;;;18.98;67.16;101220.75;5041075;28;20046;-80
2023/07/11 07:24:29;;;;;;;1.10;0.70;;;;;;;18.97;67.76;101230.38;5037578;28;20045;-79
2023/07/11 07:26:57;;;;;;;5.10;1.52;;;;;;;18.93;67.32;101222.50;5043134;28;20065;-78
2023/07/11 07:29:26;;;;;;;2.90;1.25;;;;;;;18.88;67.59;101219.84;5046201;28;20101;-78
2023/07/11 07:31:56;;;;;;;1.25;0.80;;;;;;;18.93;67.36;101225.97;5043861;28;20068;-80
2023/07/11 07:34:24;;;;;;;1.50;0.70;;;;;;;18.97;66.96;101227.75;5042324;28;20108;-77
2023/07/11 07:36:53;;;;;;;5.00;0.80;;;;;;;19.00;67.98;101232.97;5041141;28;20084;-78
2023/07/11 07:39:21;;;;;;;2.05;1.23;;;;;;;18.96;67.24;101233.84;5061515;28;20271;-79
2023/07/11 07:41:49;;;;;;;4.28;1.00;;;;;;;18.92;67.37;101228.59;5061446;28;20614;-78
2023/07/11 07:44:18;;;;;;;1.33;0.90;;;;;;;18.91;67.93;101221.59;5064368;28;20087;-78
2023/07/11 07:46:46;;;;;;;1.38;0.82;;;;;;;18.88;68.42;101225.09;5063355;28;20051;-79
2023/07/11 07:49:16;;;;;;;1.42;1.13;;;;;;;18.87;68.04;101225.94;5059868;28;20051;-79
2023/07/11 07:51:45;;;;;;;2.83;1.02;;;;;;;18.91;68.85;101221.59;5058627;28;20111;-78
2023/07/11 07:54:13;;;;;;;1.75;0.60;;;;;;;18.93;68.07;101220.72;5057039;28;20662;-80
2023/07/11 07:56:41;;;;;;;1.08;0.60;;;;;;;18.91;68.81;101222.47;5070494;28;20048;-79
2023/07/11 07:59:12;;;;;;;0.82;0.60;;;;;;;18.92;68.80;101224.25;5063559;28;20164;-79
2023/07/11 08:01:40;;;;;;;1.23;0.68;;;;;;;18.93;68.63;101225.97;5063273;28;20618;-81
2023/07/11 08:04:09;;;;;;;1.80;0.70;;;;;;;18.95;68.12;101232.09;5064175;28;20072;-80
2023/07/11 08:06:39;;;;;;;0.80;0.65;;;;;;;18.96;68.43;101231.22;5066651;28;20045;-80
2023/07/11 08:09:07;;;;;;;0.80;0.70;;;;;;;18.96;68.19;101233.84;5063604;28;20155;-81
2023/07/11 08:11:35;;;;;;;1.95;0.57;;;;;;;18.97;68.18;101234.75;5060145;28;20045;-82
2023/07/11 08:14:04;;;;;;;1.08;0.70;;;;;;;18.96;68.48;101231.22;5069690;28;20521;-81
2023/07/11 08:16:32;;;;;;;0.68;0.40;;;;;;;18.96;68.64;101230.34;5063463;28;20049;-81
2023/07/11 08:19:05;;;;;;;0.68;0.60;;;;;;;18.95;68.28;101232.09;5063859;28;20048;-81
2023/07/11 08:21:37;;;;;;;1.02;0.65;;;;;;;18.91;68.15;101218.97;5062175;28;20060;-80
2023/07/11 08:24:08;;;;;;;1.15;0.77;;;;;;;18.93;68.72;101230.34;5060535;28;20114;-77
2023/07/11 08:26:36;;;;;;;1.05;0.68;;;;;;;18.88;68.60;101222.47;5061317;28;20133;-77
2023/07/11 08:29:05;;;;;;;1.05;0.63;;;;;;;18.86;68.37;101228.59;5059872;28;20048;-78
2023/07/11 08:31:33;;;;;;;0.88;0.77;;;;;;;18.83;68.36;101224.22;5062299;28;20102;-77
2023/07/11 08:34:02;;;;;;;2.38;0.63;;;;;;;18.79;68.79;101222.44;5060610;28;20426;-77
2023/07/11 08:36:30;;;;;;;1.15;0.65;;;;;;;18.75;68.86;101220.66;5064047;28;20052;-78
2023/07/11 08:38:59;;;;;;;2.75;1.27;;;;;;;18.71;68.76;101222.38;5051604;27;20502;-78
2023/07/11 08:41:37;;;;;;;0.85;0.60;;;;;;;18.68;68.97;101221.50;5045094;28;20041;-77
2023/07/11 08:44:16;;;;;;;2.33;0.70;;;;;;;18.62;69.48;101223.25;5045599;28;20107;-77
2023/07/11 08:46:50;;;;;;;0.85;0.60;;;;;;;18.59;69.87;101219.72;5046225;28;20076;-78
2023/07/11 08:49:24;;;;;;;0.70;0.70;;;;;;;18.53;70.38;101219.69;5046402;28;20054;-79
2023/07/11 08:51:55;;;;;;;1.10;0.60;;;;;;;18.47;69.92;101217.94;5044452;28;20041;-78
2023/07/11 08:54:30;;;;;;;3.15;0.70;;;;;;;18.42;70.75;101217.03;5048163;28;20303;-78
2023/07/11 08:57:01;;;;;;;2.50;0.70;;;;;;;18.38;70.61;101223.13;5048249;28;20106;-78
2023/07/11 08:59:42;;;;;;;1.08;0.52;;;;;;;18.34;71.07;101218.72;5044510;28;20053;-80
2023/07/11 09:02:26;;;;;;;0.80;0.55;;;;;;;18.30;71.47;101216.97;5045702;28;20053;-77
2023/07/11 09:04:56;;;;;;;1.33;0.88;;;;;;;18.25;72.02;101213.44;5233372;22;20049;-74
2023/07/11 09:07:36;;;;;;;0.50;0.40;;;;;;;18.21;72.56;101212.56;5026322;28;20042;-78
2023/07/11 09:10:13;;;;;;;0.93;0.40;;;;;;;18.11;73.39;101211.63;5026721;28;20057;-74
2023/07/11 09:12:52;;;;;;;0.60;0.50;;;;;;;18.10;73.67;101215.13;5026158;28;20116;-73
2023/07/11 09:15:26;;;;;;;0.70;0.50;;;;;;;18.04;74.58;101209.84;5025668;28;20049;-75
2023/07/11 09:18:02;;;;;;;3.25;0.50;;;;;;;17.98;75.50;101209.78;5031329;28;20057;-76
2023/07/11 09:20:42;;;;;;;0.40;0.30;;;;;;;17.94;75.68;101213.28;5024970;28;20053;-75
2023/07/11 09:23:25;;;;;;;0.88;0.50;;;;;;;17.91;75.41;101218.47;5022187;28;20041;-74
2023/07/11 09:25:59;;;;;;;0.47;0.38;;;;;;;17.85;76.71;101218.44;5026090;28;20054;-75
2023/07/11 09:28:33;;;;;;;2.83;0.45;;;;;;;17.78;77.88;101217.50;5031191;28;20072;-75
2023/07/11 09:31:04;;;;;;;1.88;0.57;;;;;;;17.74;77.69;101223.56;5018897;28;20052;-75
2023/07/11 09:33:35;;;;;;;0.37;0.20;;;;;;;17.74;76.92;101226.19;5022270;28;20475;-75
2023/07/11 09:36:11;;;;;;;0.55;0.38;;;;;;;17.74;76.79;101224.44;5027575;28;20490;-76
2023/07/11 09:38:46;;;;;;;0.93;0.45;;;;;;;17.78;76.76;101222.72;5025018;28;20054;-75
2023/07/11 09:41:23;;;;;;;1.48;0.43;;;;;;;17.79;76.56;101229.72;5020609;28;20521;-75
2023/07/11 09:43:54;;;;;;;0.50;0.30;;;;;;;17.79;76.71;101221.84;5026332;28;20053;-74
2023/07/11 09:46:25;;;;;;;2.85;0.95;;;;;;;17.78;77.07;101218.38;5032080;28;20413;-75
2023/07/11 09:48:58;;;;;;;0.25;0.20;;;;;;;17.79;77.42;101230.56;5027836;28;20049;-75
2023/07/11 09:51:30;;;;;;;0.85;0.40;;;;;;;17.80;77.24;101237.56;5020991;28;20049;-75
2023/07/11 09:53:59;;;;;;;1.08;0.20;;;;;;;17.83;77.07;101230.66;5024095;28;20057;-74
2023/07/11 09:56:27;;;;;;;0.80;0.45;;;;;;;17.81;77.86;101233.25;5027492;28;20573;-74
2023/07/11 09:59:02;;;;;;;0.47;0.30;;;;;;;17.82;79.20;101235.03;5030347;28;20061;-74
2023/07/11 10:01:36;;;;;;;0.63;0.40;;;;;;;17.79;78.92;101235.81;5019203;28;20053;-75
2023/07/11 10:04:07;;;;;;;0.50;0.40;;;;;;;17.81;78.46;101235.88;5012654;28;20061;-75
2023/07/11 10:06:39;;;;;;;0.53;0.33;;;;;;;17.82;78.59;101231.50;5006237;28;20723;-75
2023/07/11 10:09:17;;;;;;;1.25;0.57;;;;;;;17.85;79.04;101234.16;5007883;28;20302;-76
2023/07/11 10:11:53;;;;;;;0.70;0.40;;;;;;;17.87;78.20;101233.31;5002680;28;20054;-74
2023/07/11 10:14:27;;;;;;;0.52;0.20;;;;;;;17.89;78.19;101230.66;5007733;28;20056;-75
2023/07/11 10:16:58;;;;;;;0.90;0.50;;;;;;;17.91;77.81;101232.47;5008993;28;20046;-74
2023/07/11 10:19:27;;;;;;;0.43;0.35;;;;;;;17.95;77.98;101231.59;5000828;28;20060;-75
2023/07/11 10:22:00;;;;;;;1.67;0.40;;;;;;;17.97;77.84;101229.00;5001986;28;20492;-74
2023/07/11 10:24:37;;;;;;;0.40;0.40;;;;;;;17.96;78.42;101224.63;5003728;28;20519;-73
2023/07/11 10:27:13;;;;;;;0.32;0.30;;;;;;;17.98;78.27;101235.97;5007020;28;20057;-76
2023/07/11 10:29:48;;;;;;;0.82;0.40;;;;;;;18.00;78.09;101239.47;5004391;28;20068;-75
2023/07/11 10:32:24;;;;;;;0.20;0.20;;;;;;;18.02;77.24;101235.13;5004525;28;20050;-75
2023/07/11 10:34:55;;;;;;;0.65;0.30;;;;;;;18.00;77.30;101235.16;5004886;28;20507;-75
2023/07/11 10:37:31;;;;;;;0.80;0.65;;;;;;;18.03;77.52;101243.84;5006129;28;20503;-75
2023/07/11 10:40:06;;;;;;;0.28;0.25;;;;;;;18.03;77.57;101236.91;5007215;28;20051;-75
2023/07/11 10:42:40;;;;;;;0.47;0.30;;;;;;;18.04;77.73;101235.16;5005782;28;20506;-76
2023/07/11 10:45:15;;;;;;;0.40;0.35;;;;;;;18.05;77.33;101234.28;5007144;28;20051;-75
2023/07/11 10:47:55;;;;;;;0.47;0.35;;;;;;;18.07;76.80;101235.16;5001649;28;20050;-75
2023/07/11 10:50:34;;;;;;;1.25;0.40;;;;;;;18.07;77.16;101238.66;5006715;28;20046;-74
2023/07/11 10:53:12;;;;;;;0.30;0.30;;;;;;;18.08;77.26;101240.41;5006802;28;20090;-76
2023/07/11 10:55:53;;;;;;;0.43;0.30;;;;;;;18.09;76.78;101244.78;5007170;28;20128;-75
2023/07/11 10:58:25;;;;;;;0.75;0.20;;;;;;;18.10;76.81;101243.94;5003874;28;20498;-76
2023/07/11 11:01:09;;;;;;;0.30;0.30;;;;;;;18.09;76.87;101234.31;5008540;28;20082;-75
2023/07/11 11:03:40;;;;;;;0.95;0.20;;;;;;;18.11;76.75;101245.66;5009729;28;20441;-74
2023/07/11 11:06:51;;;;;;;1.85;0.32;;;;;;;18.14;76.78;101247.44;5004726;28;20143;-75
2023/07/11 11:09:27;;;;;;;0.38;0.25;;;;;;;18.13;76.74;101236.06;5006437;28;20072;-74
2023/07/11 11:12:04;;;;;;;0.80;0.25;;;;;;;18.15;75.92;101243.97;5005627;28;20073;-76
2023/07/11 11:14:43;;;;;;;0.30;0.30;;;;;;;18.16;75.63;101245.69;5005807;28;20042;-74
2023/07/11 11:17:25;;;;;;;1.40;0.38;;;;;;;18.14;76.49;101242.19;5005619;28;20132;-75
2023/07/11 11:20:00;;;;;;;;;;;;;;;18.13;76.19;101246.56;5004306;28;20105;-74
2023/07/11 11:22:37;;;;;;;1.80;0.43;;;;;;;18.15;75.61;101250.06;5005203;28;20112;-75
2023/07/11 11:25:16;;;;;;;1.15;0.50;;;;;;;18.16;75.49;101246.59;5007222;28;20061;-75
2023/07/11 11:27:56;;;;;;;0.40;0.28;;;;;;;18.19;74.66;101250.97;5000252;28;20479;-74
2023/07/11 11:30:42;;;;;;;0.30;0.30;;;;;;;18.21;74.91;101249.25;4998700;28;20045;-74
2023/07/11 11:33:30;;;;;;;0.50;0.20;;;;;;;18.21;74.78;101250.09;5000087;28;20124;-74
2023/07/11 11:36:19;;;;;;;0.28;0.20;;;;;;;18.23;74.54;101263.19;5007580;28;20049;-78
2023/07/11 11:39:06;;;;;;;1.55;0.35;;;;;;;18.23;75.30;101251.84;5002250;28;20058;-78
2023/07/11 11:41:39;;;;;;;1.10;0.55;;;;;;;18.19;75.57;101262.31;5006846;28;20104;-79
2023/07/11 11:44:16;;;;;;;0.98;0.43;;;;;;;18.10;76.13;101256.16;5007087;28;20061;-77